Time;durP1;ratioP1;P1;durP2;ratioP2;P2;SDS_P1;SDS_P2;PMS_P1;PMS_P2;Temp;Humidity;BMP_temperature;BMP_pressure;BME280_temperature;BME280_humidity;BME280_pressure;Samples;Min_cycle;Max_cycle;Signal;HPM_P1;HPM_P2
2022/03/30 00:01:59;;;;;;;10.45;8.32;;;2.80;99.90;;;;;;7371626;19;20354;-68
2022/03/30 00:04:25;;;;;;;11.03;7.97;;;2.70;99.90;;;;;;7358551;19;20366;-69
2022/03/30 00:06:51;;;;;;;9.80;7.55;;;2.60;99.90;;;;;;7377280;19;20606;-69
2022/03/30 00:09:16;;;;;;;11.23;8.53;;;2.60;99.90;;;;;;7375546;19;20466;-68
2022/03/30 00:11:42;;;;;;;10.20;7.80;;;2.60;99.90;;;;;;7378389;19;21089;-68
2022/03/30 00:14:08;;;;;;;11.20;7.47;;;2.50;99.90;;;;;;7376844;19;20877;-69
2022/03/30 00:16:34;;;;;;;9.77;7.80;;;2.50;99.90;;;;;;7359716;19;20341;-69
2022/03/30 00:19:00;;;;;;;11.27;8.13;;;2.50;99.90;;;;;;7375167;19;20324;-69
2022/03/30 00:21:26;;;;;;;7.93;7.00;;;2.40;99.90;;;;;;7376726;19;20340;-68
2022/03/30 00:23:52;;;;;;;9.30;7.23;;;2.50;99.90;;;;;;7376850;19;20324;-68
2022/03/30 00:26:19;;;;;;;10.60;8.85;;;2.30;99.90;;;;;;7375380;19;20790;-69
2022/03/30 00:28:44;;;;;;;13.05;9.75;;;2.20;99.90;;;;;;7377013;19;20986;-69
2022/03/30 00:31:11;;;;;;;11.73;8.32;;;2.00;99.90;;;;;;7372223;19;20353;-68
2022/03/30 00:33:37;;;;;;;12.38;9.30;;;1.90;99.90;;;;;;7378360;19;20332;-68
2022/03/30 00:36:03;;;;;;;10.57;7.75;;;1.80;99.90;;;;;;7375772;19;20415;-69
2022/03/30 00:38:29;;;;;;;12.40;9.37;;;1.90;99.90;;;;;;7327207;19;20935;-68
2022/03/30 00:40:54;;;;;;;11.07;8.73;;;1.80;99.90;;;;;;7373012;19;20407;-68
2022/03/30 00:43:20;;;;;;;11.55;9.43;;;1.80;99.90;;;;;;7377297;19;20345;-68
2022/03/30 00:45:46;;;;;;;10.67;8.13;;;1.80;99.90;;;;;;7375225;19;20340;-68
2022/03/30 00:48:11;;;;;;;10.70;7.63;;;1.80;99.90;;;;;;7375945;19;20396;-68
2022/03/30 00:50:37;;;;;;;12.13;8.60;;;1.70;99.90;;;;;;7376824;19;20345;-68
2022/03/30 00:53:03;;;;;;;10.37;7.63;;;1.70;99.90;;;;;;7376562;19;20337;-68
2022/03/30 00:55:28;;;;;;;10.93;7.77;;;1.60;99.90;;;;;;7373412;19;20351;-68
2022/03/30 00:57:54;;;;;;;9.00;7.70;;;1.60;99.90;;;;;;7376265;19;20740;-68
2022/03/30 01:00:21;;;;;;;12.95;10.27;;;1.60;99.90;;;;;;7374501;19;20728;-68
2022/03/30 01:02:48;;;;;;;10.35;7.95;;;1.50;99.90;;;;;;7375085;19;20316;-68
2022/03/30 01:05:13;;;;;;;12.65;9.05;;;1.40;99.90;;;;;;7377088;19;20360;-68
2022/03/30 01:07:39;;;;;;;11.27;8.70;;;1.30;99.90;;;;;;7374999;19;20304;-68
2022/03/30 01:10:06;;;;;;;10.45;8.25;;;1.20;99.90;;;;;;7372407;19;20369;-68
2022/03/30 01:12:34;;;;;;;10.05;8.10;;;1.30;99.90;;;;;;7375941;19;20700;-68
2022/03/30 01:14:59;;;;;;;8.73;7.53;;;1.20;99.90;;;;;;7376866;19;20655;-68
2022/03/30 01:17:25;;;;;;;8.85;7.00;;;1.20;99.90;;;;;;7376399;19;20340;-69
2022/03/30 01:19:51;;;;;;;9.20;7.25;;;1.20;99.90;;;;;;7376728;19;20336;-68
2022/03/30 01:22:16;;;;;;;10.77;8.20;;;1.30;99.90;;;;;;7377923;19;20312;-67
2022/03/30 01:24:42;;;;;;;12.00;9.30;;;1.20;99.90;;;;;;7379793;19;20410;-68
2022/03/30 01:27:08;;;;;;;10.20;7.90;;;1.10;99.90;;;;;;7378010;19;20868;-67
2022/03/30 01:32:28;;;;;;;9.07;7.38;;;1.10;99.90;;;;;;7379680;19;20316;-68
2022/03/30 01:35:01;;;;;;;9.40;7.50;;;0.90;99.90;;;;;;7378961;19;20305;-68
2022/03/30 01:37:28;;;;;;;10.00;7.63;;;0.90;99.90;;;;;;7375049;19;20356;-69
2022/03/30 01:39:57;;;;;;;9.68;7.63;;;0.90;99.90;;;;;;7374028;19;20432;-68
2022/03/30 01:42:23;;;;;;;9.07;7.47;;;0.90;99.90;;;;;;7359340;19;20317;-67
2022/03/30 01:44:49;;;;;;;11.93;8.82;;;0.90;99.90;;;;;;7375311;19;20316;-67
2022/03/30 01:47:15;;;;;;;11.90;9.03;;;0.80;99.90;;;;;;7376344;19;20873;-67
2022/03/30 01:49:41;;;;;;;9.77;8.33;;;0.60;99.90;;;;;;7374964;19;20308;-68
2022/03/30 01:52:07;;;;;;;9.27;7.80;;;0.50;99.90;;;;;;7376257;19;20719;-67
2022/03/30 01:54:37;;;;;;;10.47;8.07;;;0.50;99.90;;;;;;7378126;19;20309;-67
2022/03/30 01:57:03;;;;;;;9.20;7.53;;;0.40;99.90;;;;;;7376625;19;20735;-67
2022/03/30 01:59:29;;;;;;;10.00;8.00;;;0.40;99.90;;;;;;7374154;19;20357;-68
2022/03/30 02:01:54;;;;;;;11.90;8.68;;;0.40;99.90;;;;;;7372260;19;20318;-67
2022/03/30 02:04:20;;;;;;;12.23;9.23;;;0.40;99.90;;;;;;7379498;19;20313;-67
2022/03/30 02:06:45;;;;;;;8.93;7.83;;;0.30;99.90;;;;;;7379200;19;20376;-67
2022/03/30 02:09:12;;;;;;;10.52;7.40;;;0.10;99.90;;;;;;7375441;19;20336;-67
2022/03/30 02:11:38;;;;;;;10.02;7.70;;;0.10;99.90;;;;;;7374556;19;20317;-67
2022/03/30 02:14:03;;;;;;;13.05;8.55;;;0.10;99.90;;;;;;7375318;19;20848;-68
2022/03/30 02:16:29;;;;;;;13.20;9.60;;;0.00;99.90;;;;;;7373996;19;20321;-67
2022/03/30 02:18:55;;;;;;;11.83;8.20;;;-0.10;99.90;;;;;;7375012;19;20328;-67
2022/03/30 02:21:20;;;;;;;10.85;7.57;;;-0.10;99.90;;;;;;7377812;19;21138;-67
2022/03/30 02:23:46;;;;;;;8.75;7.07;;;-0.20;99.90;;;;;;7383521;19;20320;-68
2022/03/30 02:26:15;;;;;;;9.93;7.90;;;-0.20;99.90;;;;;;7382644;19;20380;-67
2022/03/30 02:28:41;;;;;;;11.82;8.23;;;-0.20;99.90;;;;;;7380787;19;20352;-67
2022/03/30 02:31:07;;;;;;;10.20;8.30;;;-0.20;99.90;;;;;;7380752;19;20293;-67
2022/03/30 02:33:33;;;;;;;11.70;8.20;;;-0.30;99.90;;;;;;7381861;19;20879;-68
2022/03/30 02:35:59;;;;;;;12.77;8.17;;;-0.40;99.90;;;;;;7381467;19;20735;-68
2022/03/30 02:38:24;;;;;;;10.45;7.28;;;-0.40;99.90;;;;;;7382444;19;20359;-68
2022/03/30 02:40:50;;;;;;;9.48;7.13;;;-0.40;99.90;;;;;;7380844;19;20316;-67
2022/03/30 02:43:19;;;;;;;9.63;7.43;;;-0.40;99.90;;;;;;7382809;19;20348;-68
2022/03/30 02:45:46;;;;;;;10.80;7.22;;;-0.40;99.90;;;;;;7380243;19;20348;-67
2022/03/30 02:48:22;;;;;;;11.85;7.75;;;-0.30;99.90;;;;;;7378888;19;20360;-67
2022/03/30 02:50:50;;;;;;;8.73;7.10;;;-0.30;99.90;;;;;;7378882;19;20714;-67
2022/03/30 02:53:16;;;;;;;9.23;6.65;;;-0.30;99.90;;;;;;7382520;19;20961;-67
2022/03/30 02:55:42;;;;;;;9.45;6.57;;;-0.30;99.90;;;;;;7379516;19;20349;-67
2022/03/30 02:58:09;;;;;;;11.25;6.35;;;-0.30;99.90;;;;;;7379491;19;20365;-66
2022/03/30 03:00:35;;;;;;;10.50;7.35;;;-0.30;99.90;;;;;;7379535;19;20332;-68
2022/03/30 03:03:01;;;;;;;9.43;6.63;;;-0.30;99.90;;;;;;7383222;19;20340;-67
2022/03/30 03:05:33;;;;;;;7.05;5.50;;;-0.40;99.90;;;;;;7380439;19;20329;-67
2022/03/30 03:08:00;;;;;;;5.57;5.00;;;-0.40;99.90;;;;;;7382833;19;20355;-67
2022/03/30 03:10:26;;;;;;;7.40;5.80;;;-0.30;99.90;;;;;;7384198;19;20325;-67
2022/03/30 03:12:52;;;;;;;8.87;6.93;;;-0.20;99.90;;;;;;7378995;19;20331;-67
2022/03/30 03:15:18;;;;;;;8.20;6.20;;;-0.20;99.90;;;;;;7375913;19;20874;-68
2022/03/30 03:17:43;;;;;;;9.20;6.23;;;-0.30;99.90;;;;;;7383114;19;20323;-68
2022/03/30 03:20:11;;;;;;;8.10;5.88;;;-0.30;99.90;;;;;;7366053;19;20337;-67
2022/03/30 03:22:37;;;;;;;8.67;6.07;;;-0.30;99.90;;;;;;7382709;19;20313;-67
2022/03/30 03:25:03;;;;;;;6.82;5.82;;;-0.40;99.90;;;;;;7380482;19;20357;-68
2022/03/30 03:27:29;;;;;;;6.60;5.57;;;-0.30;99.90;;;;;;7380572;19;20346;-67
2022/03/30 03:29:55;;;;;;;8.63;6.13;;;-0.30;99.90;;;;;;7380791;19;20663;-68
2022/03/30 03:32:21;;;;;;;7.57;6.17;;;-0.30;99.90;;;;;;7374575;19;20424;-67
2022/03/30 03:34:46;;;;;;;6.63;5.93;;;-0.50;99.90;;;;;;7382793;19;20446;-66
2022/03/30 03:37:12;;;;;;;5.43;4.85;;;-0.40;99.90;;;;;;7382814;19;20357;-67
2022/03/30 03:39:37;;;;;;;6.90;5.23;;;-0.50;99.90;;;;;;7377145;19;20395;-67
2022/03/30 03:42:03;;;;;;;8.15;6.22;;;-0.50;99.90;;;;;;7379541;19;20317;-67
2022/03/30 03:44:29;;;;;;;10.02;6.15;;;-0.50;99.90;;;;;;7382532;19;20679;-67
2022/03/30 03:46:55;;;;;;;5.33;4.83;;;-0.50;99.90;;;;;;7378921;19;20345;-67
2022/03/30 03:49:20;;;;;;;7.45;5.03;;;-0.60;99.90;;;;;;7377691;19;20321;-67
2022/03/30 03:51:46;;;;;;;7.15;5.50;;;-0.60;99.90;;;;;;7379044;19;20353;-67
2022/03/30 03:54:12;;;;;;;6.82;5.70;;;-0.60;99.90;;;;;;7379361;19;20908;-67
2022/03/30 03:56:37;;;;;;;6.47;5.77;;;-0.50;99.90;;;;;;7378409;19;20444;-66
2022/03/30 03:59:04;;;;;;;8.13;5.68;;;-0.50;99.90;;;;;;7380096;19;20352;-67
2022/03/30 04:01:29;;;;;;;7.10;5.57;;;-0.50;99.90;;;;;;7377962;19;20832;-67
2022/03/30 04:03:56;;;;;;;9.02;5.47;;;-0.50;99.90;;;;;;7381713;19;20329;-67
2022/03/30 04:06:22;;;;;;;11.60;6.65;;;-0.50;99.90;;;;;;7379525;19;21017;-67
2022/03/30 04:08:48;;;;;;;10.55;6.57;;;-0.50;99.90;;;;;;7378725;19;20352;-67
2022/03/30 04:11:14;;;;;;;11.53;6.13;;;-0.60;99.90;;;;;;7376323;19;20416;-67
2022/03/30 04:13:40;;;;;;;10.33;6.67;;;-0.70;99.90;;;;;;7377097;19;20381;-67
2022/03/30 04:16:06;;;;;;;9.35;6.30;;;-0.70;99.90;;;;;;7374178;19;20337;-67
2022/03/30 04:18:31;;;;;;;10.88;6.95;;;-0.70;99.90;;;;;;7380122;19;20349;-67
2022/03/30 04:20:57;;;;;;;15.00;10.07;;;-0.60;99.90;;;;;;7379063;19;20344;-67
2022/03/30 04:23:22;;;;;;;15.27;10.43;;;-0.70;99.90;;;;;;7379111;19;20360;-67
2022/03/30 04:25:48;;;;;;;13.13;8.80;;;-0.80;99.90;;;;;;7378861;19;20443;-67
2022/03/30 04:28:17;;;;;;;7.18;5.93;;;-0.90;99.90;;;;;;7377350;19;20711;-67
2022/03/30 04:30:43;;;;;;;10.70;7.03;;;-0.90;99.90;;;;;;7377152;19;20344;-67
2022/03/30 04:33:09;;;;;;;10.68;7.68;;;-0.90;99.90;;;;;;7378344;19;20423;-67
2022/03/30 04:35:36;;;;;;;14.13;7.15;;;-1.00;99.90;;;;;;7378306;19;20380;-67
2022/03/30 04:38:01;;;;;;;11.95;7.03;;;-1.10;99.90;;;;;;7376452;19;20369;-67
2022/03/30 04:40:28;;;;;;;8.43;7.27;;;-1.10;99.90;;;;;;7372550;19;20308;-67
2022/03/30 04:42:54;;;;;;;9.63;7.75;;;-1.20;99.90;;;;;;7373068;19;20316;-67
2022/03/30 04:45:20;;;;;;;8.10;6.13;;;-1.20;99.90;;;;;;7378054;19;20880;-67
2022/03/30 04:47:46;;;;;;;9.23;6.10;;;-1.30;99.90;;;;;;7376351;19;20305;-67
2022/03/30 04:50:12;;;;;;;9.18;5.90;;;-1.30;99.90;;;;;;7378303;19;20340;-67
2022/03/30 04:52:38;;;;;;;8.43;5.63;;;-1.30;99.90;;;;;;7375572;19;20340;-67
2022/03/30 04:55:05;;;;;;;9.20;6.30;;;-1.20;99.90;;;;;;7379783;19;20328;-67
2022/03/30 04:57:30;;;;;;;9.02;6.50;;;-1.10;99.90;;;;;;7376593;19;20347;-67
2022/03/30 04:59:56;;;;;;;13.23;6.77;;;-1.20;99.90;;;;;;7379338;19;20336;-67
2022/03/30 05:02:22;;;;;;;11.70;6.63;;;-1.10;99.90;;;;;;7376965;19;20367;-67
2022/03/30 05:04:48;;;;;;;12.55;7.57;;;-1.10;99.90;;;;;;7380667;19;20347;-66
2022/03/30 05:07:14;;;;;;;8.55;6.32;;;-1.20;99.90;;;;;;7379862;19;20325;-66
2022/03/30 05:09:40;;;;;;;11.73;6.63;;;-1.20;99.90;;;;;;7376786;19;20411;-67
2022/03/30 05:12:06;;;;;;;9.60;6.70;;;-1.20;99.90;;;;;;7376759;19;20313;-67
2022/03/30 05:14:34;;;;;;;10.32;6.05;;;-1.20;99.90;;;;;;7376753;19;20332;-67
2022/03/30 05:17:00;;;;;;;7.72;6.43;;;-1.10;99.90;;;;;;7379549;19;20331;-67
2022/03/30 05:19:26;;;;;;;9.70;6.97;;;-1.10;99.90;;;;;;7376161;19;20340;-67
2022/03/30 05:21:52;;;;;;;11.82;8.15;;;-1.10;99.90;;;;;;7377128;19;20333;-67
2022/03/30 05:24:17;;;;;;;7.30;5.72;;;-1.10;99.90;;;;;;7377885;19;20344;-67
2022/03/30 05:26:43;;;;;;;12.53;5.83;;;-1.10;99.90;;;;;;7376502;19;20343;-67
2022/03/30 05:29:09;;;;;;;9.57;6.13;;;-1.00;99.90;;;;;;7378861;19;20326;-67
2022/03/30 05:31:34;;;;;;;10.90;6.47;;;-0.90;99.90;;;;;;7376629;19;20375;-67
2022/03/30 05:34:00;;;;;;;8.90;6.47;;;-0.80;99.90;;;;;;7376640;19;20373;-67
2022/03/30 05:36:25;;;;;;;9.40;5.88;;;-0.90;99.90;;;;;;7378301;19;20336;-68
2022/03/30 05:38:51;;;;;;;6.80;5.90;;;-0.80;99.90;;;;;;7375809;19;20317;-67
2022/03/30 05:41:17;;;;;;;8.87;6.20;;;-0.70;99.90;;;;;;7375244;19;21038;-68
2022/03/30 05:43:43;;;;;;;10.63;6.10;;;-0.60;99.90;;;;;;7374419;19;20343;-67
2022/03/30 05:46:09;;;;;;;14.17;7.50;;;-0.40;99.90;;;;;;7373700;19;20309;-67
2022/03/30 05:48:35;;;;;;;7.90;6.63;;;-0.40;99.90;;;;;;7377137;19;20312;-67
2022/03/30 05:51:00;;;;;;;8.13;6.10;;;-0.40;99.90;;;;;;7374716;19;20388;-67
2022/03/30 05:53:26;;;;;;;9.30;6.13;;;-0.40;99.90;;;;;;7376194;19;20456;-68
2022/03/30 05:55:52;;;;;;;8.48;5.75;;;-0.30;99.90;;;;;;7378109;19;20305;-68
2022/03/30 05:58:18;;;;;;;9.50;6.77;;;-0.20;99.90;;;;;;7383000;19;21200;-67
2022/03/30 06:00:44;;;;;;;9.25;6.13;;;-0.20;99.90;;;;;;7381277;19;20668;-67
2022/03/30 06:03:12;;;;;;;9.13;6.35;;;-0.20;99.90;;;;;;7383086;19;20327;-67
2022/03/30 06:05:38;;;;;;;9.00;6.13;;;-0.20;99.90;;;;;;7381516;19;20881;-67
2022/03/30 06:08:05;;;;;;;9.10;6.50;;;-0.20;99.90;;;;;;7381562;19;21188;-67
2022/03/30 06:10:31;;;;;;;9.40;6.47;;;-0.10;99.90;;;;;;7380440;19;20336;-68
2022/03/30 06:12:57;;;;;;;7.40;5.25;;;-0.10;99.90;;;;;;7381437;19;20319;-67
2022/03/30 06:15:23;;;;;;;8.10;5.20;;;0.00;99.90;;;;;;7383740;19;20424;-66
2022/03/30 06:17:50;;;;;;;6.53;5.15;;;0.10;99.90;;;;;;7355912;19;20332;-67
2022/03/30 06:20:15;;;;;;;6.13;4.93;;;0.20;99.90;;;;;;7377871;19;20351;-68
2022/03/30 06:22:41;;;;;;;6.88;4.65;;;0.30;99.90;;;;;;7379448;19;20337;-68
2022/03/30 06:25:07;;;;;;;9.43;5.90;;;0.40;99.90;;;;;;7381082;19;20321;-67
2022/03/30 06:27:34;;;;;;;12.70;5.55;;;0.70;99.90;;;;;;7380771;19;20702;-68
2022/03/30 06:30:01;;;;;;;8.57;6.32;;;0.80;99.90;;;;;;7382472;19;20336;-68
2022/03/30 06:32:26;;;;;;;12.30;7.50;;;0.90;99.90;;;;;;7382377;19;20345;-67
2022/03/30 06:34:52;;;;;;;8.38;6.22;;;1.00;99.90;;;;;;7383274;19;20435;-68
2022/03/30 06:37:18;;;;;;;9.98;6.57;;;1.10;99.90;;;;;;7382559;19;20327;-67
2022/03/30 06:39:43;;;;;;;9.93;6.33;;;1.30;99.90;;;;;;7379494;19;20343;-69
2022/03/30 06:42:12;;;;;;;6.35;3.85;;;1.40;99.90;;;;;;7381572;19;20315;-68
2022/03/30 06:44:38;;;;;;;4.60;2.67;;;1.60;99.90;;;;;;7382742;19;20324;-67
2022/03/30 06:47:04;;;;;;;3.93;2.80;;;1.80;99.90;;;;;;7380923;19;20357;-68
2022/03/30 06:49:29;;;;;;;4.90;2.40;;;2.00;99.90;;;;;;7384477;19;20340;-67
2022/03/30 06:51:55;;;;;;;5.57;2.75;;;2.20;99.90;;;;;;7382509;19;20349;-68
2022/03/30 06:54:21;;;;;;;4.05;2.35;;;2.40;99.90;;;;;;7383422;19;21066;-69
2022/03/30 06:56:47;;;;;;;4.07;2.47;;;2.50;99.90;;;;;;7381094;19;20317;-67
2022/03/30 06:59:13;;;;;;;2.88;2.35;;;2.70;99.90;;;;;;7380793;19;20319;-68
2022/03/30 07:01:39;;;;;;;7.25;2.53;;;2.90;99.90;;;;;;7380107;19;20344;-69
2022/03/30 07:04:05;;;;;;;3.40;2.20;;;3.10;99.90;;;;;;7382936;19;20320;-68
2022/03/30 07:06:31;;;;;;;5.70;2.17;;;3.20;99.90;;;;;;7378876;19;20367;-68
2022/03/30 07:11:40;;;;;;;3.65;2.33;;;3.50;99.90;;;;;;7278248;19;2004441;-67
2022/03/30 07:14:06;;;;;;;4.65;2.65;;;3.80;99.90;;;;;;7381842;19;20317;-68
2022/03/30 07:16:31;;;;;;;5.13;2.57;;;3.80;99.90;;;;;;7381219;19;20693;-68
2022/03/30 07:18:57;;;;;;;4.37;2.03;;;3.90;99.90;;;;;;7380144;19;20317;-68
2022/03/30 07:21:23;;;;;;;4.47;2.22;;;4.10;99.90;;;;;;7382738;19;20324;-70
2022/03/30 07:23:48;;;;;;;3.43;1.80;;;4.40;99.90;;;;;;7383202;19;20324;-68
2022/03/30 07:26:14;;;;;;;2.95;2.10;;;4.50;99.90;;;;;;7382508;19;20346;-68
2022/03/30 07:28:40;;;;;;;4.03;2.20;;;4.70;99.90;;;;;;7380501;19;21040;-67
2022/03/30 07:31:05;;;;;;;4.07;2.60;;;4.90;99.90;;;;;;7375913;19;20317;-68
2022/03/30 07:33:33;;;;;;;4.63;3.10;;;5.00;99.90;;;;;;7380528;19;20345;-69
2022/03/30 07:35:59;;;;;;;3.40;2.20;;;5.00;99.90;;;;;;7380767;19;20327;-68
2022/03/30 07:38:24;;;;;;;6.63;2.58;;;5.10;99.90;;;;;;7379073;19;20722;-68
2022/03/30 07:40:50;;;;;;;6.70;2.73;;;5.30;99.90;;;;;;7367211;19;20318;-68
2022/03/30 07:43:16;;;;;;;4.70;2.47;;;5.50;99.90;;;;;;7380775;19;20423;-68
2022/03/30 07:45:42;;;;;;;3.17;2.50;;;5.50;99.90;;;;;;7379306;19;20367;-69
2022/03/30 07:48:08;;;;;;;4.00;2.50;;;5.70;99.90;;;;;;7378744;19;20383;-70
2022/03/30 07:50:34;;;;;;;4.18;2.40;;;5.80;99.90;;;;;;7368578;19;20321;-70
2022/03/30 07:53:00;;;;;;;4.28;2.47;;;6.00;99.90;;;;;;7377140;19;20349;-71
2022/03/30 07:55:28;;;;;;;4.57;2.67;;;6.10;99.90;;;;;;7379469;19;20762;-69
2022/03/30 07:57:54;;;;;;;3.80;2.22;;;6.30;99.90;;;;;;7377375;19;20319;-68
2022/03/30 08:00:21;;;;;;;4.37;2.43;;;6.50;99.90;;;;;;7376829;19;20792;-69
2022/03/30 08:02:47;;;;;;;4.72;2.53;;;6.60;99.90;;;;;;7378137;19;20361;-68
2022/03/30 08:05:13;;;;;;;6.15;2.65;;;6.80;99.90;;;;;;7379435;19;20349;-70
2022/03/30 08:07:42;;;;;;;4.47;2.50;;;7.00;99.90;;;;;;7380091;19;20332;-70
2022/03/30 08:10:09;;;;;;;3.85;2.65;;;7.10;99.90;;;;;;7377914;19;20320;-69
2022/03/30 08:12:38;;;;;;;8.33;3.50;;;7.20;99.90;;;;;;7377598;19;20309;-68
2022/03/30 08:15:04;;;;;;;6.18;3.10;;;7.30;99.90;;;;;;7380426;19;20308;-68
2022/03/30 08:17:29;;;;;;;5.72;2.92;;;7.30;99.90;;;;;;7380383;19;20323;-68
2022/03/30 08:19:57;;;;;;;4.95;2.60;;;7.40;99.90;;;;;;7369445;19;20983;-70
2022/03/30 08:22:27;;;;;;;4.53;2.70;;;7.60;99.90;;;;;;7377611;19;20313;-69
2022/03/30 08:24:54;;;;;;;5.72;2.60;;;7.80;99.90;;;;;;7379095;19;20342;-68
2022/03/30 08:27:22;;;;;;;5.40;2.80;;;7.90;99.90;;;;;;7378787;19;20340;-67
2022/03/30 08:29:48;;;;;;;4.28;2.78;;;8.00;99.90;;;;;;7378688;19;20855;-68
2022/03/30 08:32:14;;;;;;;4.07;2.40;;;8.00;99.90;;;;;;7377095;19;20336;-68
2022/03/30 08:34:40;;;;;;;3.83;2.55;;;8.10;99.90;;;;;;7378264;19;20325;-68
2022/03/30 08:37:06;;;;;;;3.85;2.40;;;8.20;99.90;;;;;;7380252;19;20336;-68
2022/03/30 08:39:33;;;;;;;5.07;2.23;;;8.30;99.90;;;;;;7375734;19;20873;-69
2022/03/30 08:41:59;;;;;;;4.05;2.35;;;8.40;99.90;;;;;;7377140;19;20369;-68
2022/03/30 08:44:27;;;;;;;4.93;2.47;;;8.40;99.90;;;;;;7378478;19;20384;-69
2022/03/30 08:46:53;;;;;;;4.68;2.17;;;8.50;99.90;;;;;;7377937;19;20337;-68
2022/03/30 08:49:19;;;;;;;7.13;2.80;;;8.60;99.90;;;;;;7376332;19;20352;-68
2022/03/30 08:51:47;;;;;;;6.28;2.58;;;8.70;99.90;;;;;;7376201;19;20308;-68
2022/03/30 08:54:14;;;;;;;5.43;2.80;;;8.60;99.90;;;;;;7377261;19;20351;-69
2022/03/30 08:56:40;;;;;;;5.03;2.30;;;8.50;99.90;;;;;;7376100;19;20320;-68
2022/03/30 08:59:10;;;;;;;5.32;2.40;;;8.40;99.90;;;;;;7363622;19;20320;-68
2022/03/30 09:01:39;;;;;;;6.25;3.03;;;8.50;99.90;;;;;;7371054;19;20367;-69
2022/03/30 09:04:08;;;;;;;4.22;2.42;;;8.60;99.90;;;;;;7379277;19;20321;-68
2022/03/30 09:06:46;;;;;;;6.57;2.33;;;8.70;99.90;;;;;;7380696;19;20404;-69
2022/03/30 09:09:18;;;;;;;2.90;2.13;;;9.00;99.90;;;;;;7266123;19;2004678;-68
2022/03/30 09:11:45;;;;;;;4.55;2.22;;;9.10;99.90;;;;;;7375434;19;20403;-69
2022/03/30 09:14:12;;;;;;;7.05;2.28;;;9.30;99.90;;;;;;7379092;19;20716;-69
2022/03/30 09:16:41;;;;;;;7.53;2.50;;;9.50;99.90;;;;;;7378595;19;20349;-69
2022/03/30 09:19:08;;;;;;;4.60;2.70;;;9.60;99.90;;;;;;7375467;19;20308;-69
2022/03/30 09:21:53;;;;;;;2.53;1.98;;;9.60;99.90;;;;;;7370468;19;20415;-69
2022/03/30 09:24:23;;;;;;;5.35;2.50;;;9.50;99.90;;;;;;7275706;19;2004675;-69
2022/03/30 09:26:50;;;;;;;5.20;2.65;;;9.70;99.90;;;;;;7376770;19;20325;-69
2022/03/30 09:29:20;;;;;;;3.67;2.63;;;9.80;99.90;;;;;;7377227;19;20376;-68
2022/03/30 09:31:49;;;;;;;3.60;2.35;;;9.90;99.90;;;;;;7377263;19;21181;-71
2022/03/30 09:34:15;;;;;;;3.78;2.42;;;10.10;99.90;;;;;;7378246;19;20341;-68
2022/03/30 09:36:41;;;;;;;5.63;2.90;;;10.40;99.90;;;;;;7378764;19;20382;-68
2022/03/30 09:39:10;;;;;;;5.90;2.50;;;10.60;99.90;;;;;;7377681;19;20352;-69
2022/03/30 09:41:49;;;;;;;6.25;2.50;;;10.60;99.90;;;;;;7373459;19;20341;-70
2022/03/30 09:44:15;;;;;;;4.43;2.33;;;10.80;99.90;;;;;;7379968;19;20312;-70
2022/03/30 09:46:52;;;;;;;3.72;2.10;;;11.00;99.90;;;;;;7375596;19;20350;-70
2022/03/30 09:49:54;;;;;;;6.28;2.40;;;11.30;99.90;;;;;;7375821;19;20337;-71
2022/03/30 09:52:24;;;;;;;5.27;2.80;;;11.40;99.90;;;;;;7274751;19;2004424;-69
2022/03/30 09:55:01;;;;;;;4.80;2.75;;;11.50;99.90;;;;;;7377321;19;20308;-69
2022/03/30 09:57:40;;;;;;;6.18;2.58;;;11.60;99.90;;;;;;7273062;19;2004384;-69
2022/03/30 10:00:06;;;;;;;3.47;2.58;;;11.50;99.90;;;;;;7275688;19;2004393;-70
2022/03/30 10:02:36;;;;;;;7.40;2.65;;;11.30;99.90;;;;;;7376437;19;20333;-72
2022/03/30 10:05:02;;;;;;;5.88;2.55;;;11.40;99.90;;;;;;7378261;19;20352;-71
2022/03/30 10:07:29;;;;;;;10.75;2.83;;;11.50;99.90;;;;;;7374842;19;20336;-70
2022/03/30 10:09:56;;;;;;;3.60;2.53;;;11.90;99.90;;;;;;7371935;19;20983;-71
2022/03/30 10:12:23;;;;;;;3.80;2.33;;;12.20;99.90;;;;;;7375371;19;20336;-69
2022/03/30 10:14:49;;;;;;;3.38;2.25;;;12.20;99.90;;;;;;7376615;19;20393;-69
2022/03/30 10:17:15;;;;;;;2.72;1.92;;;12.30;99.90;;;;;;7374030;19;20348;-69
2022/03/30 10:19:44;;;;;;;9.23;2.45;;;12.60;99.90;;;;;;7372695;19;20847;-70
2022/03/30 10:22:13;;;;;;;3.92;2.47;;;12.90;99.60;;;;;;7373442;19;20374;-72
2022/03/30 10:25:01;;;;;;;6.70;2.58;;;12.80;99.20;;;;;;7374240;19;20317;-69
2022/03/30 10:27:48;;;;;;;3.55;2.58;;;12.90;98.80;;;;;;7272475;19;2004808;-69
2022/03/30 10:30:14;;;;;;;4.75;2.50;;;13.00;98.50;;;;;;7271050;19;2004336;-69
2022/03/30 10:32:40;;;;;;;3.72;2.25;;;13.20;98.30;;;;;;7374662;19;20324;-70
2022/03/30 10:35:10;;;;;;;4.93;2.40;;;13.30;98.80;;;;;;7374706;19;20351;-71
2022/03/30 10:37:42;;;;;;;4.28;2.53;;;13.50;97.80;;;;;;7373145;19;20373;-71
2022/03/30 10:40:10;;;;;;;3.83;2.60;;;13.40;95.70;;;;;;7367623;19;20320;-74
2022/03/30 10:42:52;;;;;;;4.57;2.17;;;13.30;96.80;;;;;;7378288;19;20320;-70
2022/03/30 10:45:42;;;;;;;7.37;2.37;;;13.30;94.30;;;;;;7278974;19;2004230;-70
2022/03/30 10:48:18;;;;;;;7.65;2.45;;;13.40;95.30;;;;;;7278666;19;2004429;-70
2022/03/30 10:51:01;;;;;;;4.53;2.17;;;13.40;95.10;;;;;;7367172;19;20313;-71
2022/03/30 10:53:32;;;;;;;7.73;2.70;;;13.40;94.50;;;;;;7205486;19;3498161;-72
2022/03/30 10:56:07;;;;;;;4.15;2.30;;;13.00;92.60;;;;;;7382905;19;20365;-69
2022/03/30 10:58:32;;;;;;;2.17;1.90;;;13.00;93.70;;;;;;7384374;19;20337;-70
2022/03/30 11:01:25;;;;;;;3.78;2.38;;;13.20;95.00;;;;;;7381989;19;20337;-71
2022/03/30 11:04:10;;;;;;;6.63;2.73;;;13.30;93.70;;;;;;7279363;19;2004511;-71
2022/03/30 11:06:38;;;;;;;4.07;2.30;;;13.10;92.50;;;;;;7380704;19;20356;-71
2022/03/30 11:09:07;;;;;;;2.85;2.10;;;13.10;93.00;;;;;;7382563;19;20688;-69
2022/03/30 11:11:43;;;;;;;5.60;2.22;;;13.00;93.60;;;;;;7380017;19;20656;-70
2022/03/30 11:14:25;;;;;;;5.05;2.38;;;13.00;92.00;;;;;;7278032;19;2004377;-69
2022/03/30 11:16:53;;;;;;;3.47;2.30;;;13.40;92.10;;;;;;7271871;19;2005849;-72
2022/03/30 11:19:19;;;;;;;5.77;3.03;;;13.50;92.50;;;;;;7379880;19;20910;-72
2022/03/30 11:22:09;;;;;;;4.90;2.40;;;13.60;92.60;;;;;;7377617;19;20335;-71
2022/03/30 11:24:36;;;;;;;3.65;2.30;;;13.80;92.00;;;;;;7277161;19;2004730;-74
2022/03/30 11:27:05;;;;;;;36.10;6.13;;;13.80;90.70;;;;;;7379760;19;20320;-70
2022/03/30 11:29:41;;;;;;;3.53;2.25;;;13.40;91.00;;;;;;7373790;19;20332;-69
2022/03/30 11:32:22;;;;;;;6.00;2.40;;;13.20;91.00;;;;;;7379903;19;20300;-71
2022/03/30 11:34:49;;;;;;;4.18;2.25;;;13.20;91.80;;;;;;7342550;19;20311;-69
2022/03/30 11:37:15;;;;;;;4.05;2.25;;;13.10;89.60;;;;;;7382387;19;20320;-71
2022/03/30 11:39:41;;;;;;;2.93;2.07;;;12.90;90.70;;;;;;7379485;19;21597;-68
2022/03/30 11:42:07;;;;;;;2.67;1.93;;;12.70;90.00;;;;;;7372449;19;20330;-71
2022/03/30 11:47:21;;;;;;;3.80;2.20;;;13.20;91.80;;;;;;7275666;19;2004452;-69
2022/03/30 11:49:51;;;;;;;3.88;2.22;;;13.10;91.70;;;;;;7378110;19;20345;-71
2022/03/30 11:52:17;;;;;;;5.50;2.20;;;12.90;91.10;;;;;;7376529;19;20676;-69
2022/03/30 11:54:47;;;;;;;5.67;2.20;;;12.90;90.90;;;;;;7372749;19;20309;-69
2022/03/30 11:57:14;;;;;;;3.77;2.20;;;12.80;91.00;;;;;;7380670;19;20312;-68
2022/03/30 11:59:39;;;;;;;2.90;2.10;;;12.60;90.70;;;;;;7381535;19;21028;-68
2022/03/30 12:02:05;;;;;;;5.17;2.40;;;12.60;90.90;;;;;;7378870;19;20328;-69
2022/03/30 12:04:31;;;;;;;3.50;2.17;;;12.60;90.40;;;;;;7381170;19;20313;-71
2022/03/30 12:06:57;;;;;;;4.05;2.13;;;12.70;91.10;;;;;;7381916;19;20312;-68
2022/03/30 12:09:23;;;;;;;4.83;2.30;;;12.70;91.20;;;;;;7378957;19;20344;-69
2022/03/30 12:11:49;;;;;;;4.72;2.30;;;12.70;90.20;;;;;;7379612;19;20832;-72
2022/03/30 12:14:26;;;;;;;3.05;2.28;;;12.60;90.50;;;;;;7381749;19;20344;-69
2022/03/30 12:16:57;;;;;;;4.95;2.00;;;12.80;90.50;;;;;;7378695;19;20308;-68
2022/03/30 12:19:22;;;;;;;3.33;2.17;;;12.90;89.90;;;;;;7379698;19;20345;-71
2022/03/30 12:21:48;;;;;;;4.22;2.10;;;13.00;90.50;;;;;;7380612;19;20323;-69
2022/03/30 12:24:21;;;;;;;4.00;2.22;;;12.90;90.30;;;;;;7380559;19;20316;-68
2022/03/30 12:26:58;;;;;;;3.30;2.10;;;12.80;88.10;;;;;;7382273;19;20309;-68
2022/03/30 12:29:24;;;;;;;3.80;2.28;;;12.70;88.80;;;;;;7380679;19;20362;-69
2022/03/30 12:31:59;;;;;;;2.85;1.88;;;12.80;90.90;;;;;;7381638;19;20317;-68
2022/03/30 12:34:26;;;;;;;2.92;2.03;;;12.70;89.00;;;;;;7277839;19;2004232;-69
2022/03/30 12:36:58;;;;;;;4.55;2.25;;;12.60;87.90;;;;;;7379007;19;20679;-68
2022/03/30 12:39:28;;;;;;;3.45;2.13;;;12.50;90.00;;;;;;7380088;19;20340;-70
2022/03/30 12:42:09;;;;;;;3.30;2.10;;;12.40;91.30;;;;;;7378468;19;20305;-70
2022/03/30 12:44:58;;;;;;;3.10;2.00;;;12.20;90.50;;;;;;7379734;19;20325;-68
2022/03/30 12:47:34;;;;;;;3.40;2.20;;;12.40;91.50;;;;;;7380756;19;20305;-72
2022/03/30 12:50:14;;;;;;;4.10;2.17;;;12.50;90.80;;;;;;7377893;19;20378;-69
2022/03/30 12:52:41;;;;;;;3.30;2.13;;;12.50;90.90;;;;;;7377934;19;21233;-69
2022/03/30 12:55:15;;;;;;;2.10;1.90;;;12.30;90.50;;;;;;7379828;19;20326;-68
2022/03/30 12:58:00;;;;;;;3.65;2.13;;;12.40;91.00;;;;;;7379150;19;20874;-73
2022/03/30 13:00:31;;;;;;;2.42;1.98;;;12.50;90.80;;;;;;7377640;19;20338;-70